createdAt,value
2023-04-30T00:01:39.021Z,99426.48
2023-04-30T00:04:06.622Z,99422.73
2023-04-30T00:06:34.209Z,99425.80
2023-04-30T00:09:01.812Z,99421.63
2023-04-30T00:11:29.237Z,99424.34
2023-04-30T00:13:57.430Z,99434.73
2023-04-30T00:16:27.619Z,99434.70
2023-04-30T00:18:55.274Z,99426.88
2023-04-30T00:21:22.584Z,99426.53
2023-04-30T00:23:50.350Z,99431.39
2023-04-30T00:26:17.779Z,99437.70
2023-04-30T00:28:46.946Z,99439.49
2023-04-30T00:31:14.552Z,99439.72
2023-04-30T00:33:42.102Z,99447.61
2023-04-30T00:36:09.442Z,99453.27
2023-04-30T00:38:36.900Z,99455.61
2023-04-30T00:41:04.544Z,99451.30
2023-04-30T00:43:32.378Z,99462.36
2023-04-30T00:45:59.849Z,99463.91
2023-04-30T00:48:28.131Z,99455.22
2023-04-30T00:50:55.633Z,99456.73
2023-04-30T00:53:23.280Z,99457.02
2023-04-30T00:55:50.588Z,99457.16
2023-04-30T00:58:18.770Z,99469.81
2023-04-30T01:00:47.367Z,99475.58
2023-04-30T01:03:14.798Z,99489.25
2023-04-30T01:05:42.429Z,99500.24
2023-04-30T01:08:09.919Z,99518.23
2023-04-30T01:10:52.641Z,99530.10
2023-04-30T01:13:39.741Z,99536.88
2023-04-30T01:16:29.283Z,99539.58
2023-04-30T01:19:05.074Z,99550.89
2023-04-30T01:21:33.830Z,99561.37
2023-04-30T01:24:11.015Z,99567.90
2023-04-30T01:27:01.683Z,99576.10
2023-04-30T01:29:29.616Z,99588.33
2023-04-30T01:31:56.877Z,99593.30
2023-04-30T01:34:24.399Z,99596.79
2023-04-30T01:37:15.056Z,99604.61
2023-04-30T01:39:54.969Z,99613.02
2023-04-30T01:42:26.116Z,99644.11
2023-04-30T01:45:29.246Z,99666.46
2023-04-30T01:48:15.534Z,99671.66
2023-04-30T01:50:47.864Z,99673.09
2023-04-30T01:53:21.884Z,99671.17
2023-04-30T01:55:57.817Z,99672.89
2023-04-30T01:58:25.403Z,99677.11
2023-04-30T02:00:52.350Z,99675.46
2023-04-30T02:03:19.301Z,99678.05
2023-04-30T02:05:47.470Z,99682.84
2023-04-30T02:08:14.360Z,99690.48
2023-04-30T02:10:41.285Z,99699.67
2023-04-30T02:13:08.678Z,99699.31
2023-04-30T02:15:36.024Z,99712.33
2023-04-30T02:18:03.530Z,99719.93
2023-04-30T02:20:30.976Z,99725.78
2023-04-30T02:22:58.481Z,99739.02
2023-04-30T02:25:26.541Z,99729.58
2023-04-30T02:27:53.795Z,99741.33
2023-04-30T02:30:21.324Z,99748.05
2023-04-30T02:32:48.870Z,99763.16
2023-04-30T02:35:16.561Z,99777.54
2023-04-30T02:37:43.976Z,99802.79
2023-04-30T02:40:11.738Z,99826.95
2023-04-30T02:42:39.456Z,99843.78
2023-04-30T02:45:07.163Z,99851.94
2023-04-30T02:47:34.585Z,99860.80
2023-04-30T02:50:02.002Z,99876.55
2023-04-30T02:52:29.408Z,99897.59
2023-04-30T02:54:56.768Z,99907.09
2023-04-30T02:57:24.011Z,99917.66
2023-04-30T02:59:51.376Z,99926.52
2023-04-30T03:02:21.996Z,99931.76
2023-04-30T03:04:50.208Z,99931.02
2023-04-30T03:07:17.770Z,99932.11
2023-04-30T03:09:45.172Z,99939.09
2023-04-30T03:12:12.440Z,99952.88
2023-04-30T03:14:39.865Z,99965.05
2023-04-30T03:17:07.168Z,99966.27
2023-04-30T03:19:34.496Z,99972.85
2023-04-30T03:22:03.732Z,99992.86
2023-04-30T03:24:31.153Z,100012.14
2023-04-30T03:26:58.729Z,100019.34
2023-04-30T03:29:26.968Z,100013.99
2023-04-30T03:31:54.350Z,100023.73
2023-04-30T03:34:21.736Z,100029.29
2023-04-30T03:36:49.398Z,100028.31
2023-04-30T03:39:16.872Z,100032.08
2023-04-30T03:41:44.389Z,100039.59
2023-04-30T03:44:16.218Z,100045.40
2023-04-30T03:46:44.003Z,100060.17
2023-04-30T03:49:11.653Z,100072.13
2023-04-30T03:51:42.139Z,100082.80
2023-04-30T03:54:09.783Z,100106.89
2023-04-30T03:56:37.536Z,100127.36
2023-04-30T03:59:05.753Z,100141.61
2023-04-30T04:01:33.409Z,100156.60
2023-04-30T04:04:01.316Z,100165.55
2023-04-30T04:06:28.817Z,100173.86
2023-04-30T04:08:57.419Z,100193.91
2023-04-30T04:11:24.913Z,100210.55
2023-04-30T04:13:52.227Z,100231.88
2023-04-30T04:16:19.927Z,100244.40
2023-04-30T04:18:47.339Z,100247.42
2023-04-30T04:21:14.894Z,100246.63
2023-04-30T04:23:42.236Z,100270.67
2023-04-30T04:26:10.864Z,100278.65
2023-04-30T04:28:39.350Z,100280.33
2023-04-30T04:31:08.115Z,100296.09
2023-04-30T04:33:37.410Z,100300.19
2023-04-30T04:36:05.445Z,100304.75
2023-04-30T04:38:32.889Z,100304.64
2023-04-30T04:41:01.201Z,100309.48
2023-04-30T04:43:28.718Z,100306.71
2023-04-30T04:45:56.312Z,100309.91
2023-04-30T04:48:23.865Z,100319.14
2023-04-30T04:50:51.315Z,100327.06
2023-04-30T04:53:18.671Z,100334.25
2023-04-30T04:55:46.665Z,100335.25
2023-04-30T04:58:14.060Z,100347.21
2023-04-30T05:00:41.421Z,100353.54
2023-04-30T05:03:10.329Z,100364.23
2023-04-30T05:05:38.080Z,100369.51
2023-04-30T05:08:05.652Z,100367.02
2023-04-30T05:10:33.194Z,100370.42
2023-04-30T05:13:00.763Z,100370.53
2023-04-30T05:15:28.177Z,100370.04
2023-04-30T05:17:55.819Z,100362.53
2023-04-30T05:20:23.421Z,100365.80
2023-04-30T05:22:53.217Z,100361.61
2023-04-30T05:25:21.030Z,100370.38
2023-04-30T05:27:48.379Z,100375.40
2023-04-30T05:30:16.111Z,100369.77
2023-04-30T05:32:44.594Z,100370.48
2023-04-30T05:35:12.240Z,100363.48
2023-04-30T05:37:39.783Z,100353.90
2023-04-30T05:40:07.939Z,100338.66
2023-04-30T05:42:35.437Z,100337.11
2023-04-30T05:45:02.962Z,100337.15
2023-04-30T05:47:31.401Z,100333.88
2023-04-30T05:49:58.749Z,100327.34
2023-04-30T05:52:26.123Z,100319.59
2023-04-30T05:54:54.210Z,100314.48
2023-04-30T05:57:21.559Z,100304.44
2023-04-30T05:59:48.901Z,100302.43
2023-04-30T06:02:16.560Z,100293.85
2023-04-30T06:04:44.221Z,100290.49
2023-04-30T06:07:11.659Z,100291.25
2023-04-30T06:09:39.207Z,100280.15
2023-04-30T06:12:06.665Z,100266.13
2023-04-30T06:14:35.058Z,100246.23
2023-04-30T06:17:02.558Z,100237.73
2023-04-30T06:19:29.997Z,100219.09
2023-04-30T06:21:57.396Z,100205.80
2023-04-30T06:24:27.763Z,100189.45
2023-04-30T06:26:55.077Z,100177.05
2023-04-30T06:29:24.542Z,100169.52
2023-04-30T06:31:52.565Z,100157.51
2023-04-30T06:34:21.224Z,100148.50
2023-04-30T06:36:48.775Z,100132.02
2023-04-30T06:39:16.282Z,100108.09
2023-04-30T06:41:43.884Z,100094.61
2023-04-30T06:44:11.348Z,100081.48
2023-04-30T06:46:39.256Z,100065.68
2023-04-30T06:49:06.642Z,100045.13
2023-04-30T06:51:34.332Z,100029.63
2023-04-30T06:54:01.834Z,100024.08
2023-04-30T06:56:29.236Z,100018.82
2023-04-30T06:58:56.548Z,100015.81
2023-04-30T07:01:23.847Z,100009.59
2023-04-30T07:03:52.977Z,100013.73
2023-04-30T07:06:21.886Z,100004.65
2023-04-30T07:08:49.509Z,99992.77
2023-04-30T07:11:17.183Z,99979.61
2023-04-30T07:13:44.672Z,99963.39
2023-04-30T07:16:12.098Z,99953.48
2023-04-30T07:18:41.104Z,99949.20
2023-04-30T07:21:08.960Z,99933.53
2023-04-30T07:23:36.403Z,99929.24
2023-04-30T07:26:03.952Z,99924.30
2023-04-30T07:28:31.399Z,99922.52
2023-04-30T07:30:59.022Z,99910.76
2023-04-30T07:33:26.502Z,99895.60
2023-04-30T07:35:56.315Z,99880.52
2023-04-30T07:38:24.075Z,99864.55
2023-04-30T07:40:51.558Z,99841.98
2023-04-30T07:43:18.957Z,99824.95
2023-04-30T07:45:46.870Z,99816.82
2023-04-30T07:48:14.452Z,99806.77
2023-04-30T07:50:41.867Z,99793.14
2023-04-30T07:53:09.984Z,99784.50
2023-04-30T07:55:37.372Z,99768.21
2023-04-30T07:58:04.887Z,99757.33
2023-04-30T08:00:32.395Z,99738.91
2023-04-30T08:03:01.048Z,99729.30
2023-04-30T08:05:28.612Z,99727.73
2023-04-30T08:07:57.196Z,99726.31
2023-04-30T08:10:25.615Z,99726.80
2023-04-30T08:12:53.403Z,99722.87
2023-04-30T08:15:22.146Z,99721.11
2023-04-30T08:17:50.596Z,99723.58
2023-04-30T08:20:18.053Z,99724.34
2023-04-30T08:22:45.617Z,99725.53
2023-04-30T08:25:13.103Z,99724.45
2023-04-30T08:27:40.752Z,99723.35
2023-04-30T08:30:08.954Z,99724.30
2023-04-30T08:32:36.524Z,99725.30
2023-04-30T08:35:07.460Z,99723.39
2023-04-30T08:37:35.056Z,99721.61
2023-04-30T08:40:02.628Z,99710.12
2023-04-30T08:42:36.532Z,99698.05
2023-04-30T08:45:04.519Z,99687.40
2023-04-30T08:47:32.194Z,99668.36
2023-04-30T08:49:59.587Z,99633.88
2023-04-30T08:52:27.240Z,99590.98
2023-04-30T08:54:54.625Z,99542.87
2023-04-30T08:57:22.118Z,99493.30
2023-04-30T08:59:49.631Z,99433.72
2023-04-30T09:02:17.235Z,99378.63
2023-04-30T09:04:44.709Z,99322.86
2023-04-30T09:07:14.650Z,99286.77
2023-04-30T09:09:42.064Z,99248.50
2023-04-30T09:12:19.273Z,99208.45
2023-04-30T09:15:06.339Z,99162.89
2023-04-30T09:17:34.686Z,99133.06
2023-04-30T09:20:09.424Z,99104.14
2023-04-30T09:22:37.760Z,99081.41
2023-04-30T09:25:05.900Z,99058.89
2023-04-30T09:27:33.264Z,99039.27
2023-04-30T09:30:01.083Z,99016.40
2023-04-30T09:32:28.164Z,99000.39
2023-04-30T09:34:56.142Z,98986.88
2023-04-30T09:37:35.903Z,98979.85
2023-04-30T09:40:04.603Z,98977.55
2023-04-30T09:42:31.877Z,98974.09
2023-04-30T09:44:59.534Z,98963.60
2023-04-30T09:47:30.128Z,98955.02
2023-04-30T09:49:59.851Z,98940.92
2023-04-30T09:52:27.335Z,98942.49
2023-04-30T09:54:54.849Z,98946.69
2023-04-30T09:57:23.877Z,98951.33
2023-04-30T09:59:52.510Z,98951.27
2023-04-30T10:02:20.526Z,98963.55
2023-04-30T10:04:49.761Z,98969.54
2023-04-30T10:07:20.849Z,98982.72
2023-04-30T10:09:49.417Z,98996.09
2023-04-30T10:12:22.172Z,99001.75
2023-04-30T10:14:55.146Z,99012.00
2023-04-30T10:17:24.407Z,99023.29
2023-04-30T10:19:51.900Z,99043.27
2023-04-30T10:22:19.875Z,99053.15
2023-04-30T10:24:47.825Z,99066.86
2023-04-30T10:27:15.279Z,99080.80
2023-04-30T10:29:43.288Z,99094.80
2023-04-30T10:32:11.940Z,99103.32
2023-04-30T10:34:46.172Z,99111.35
2023-04-30T10:37:16.590Z,99116.40
2023-04-30T10:39:43.993Z,99122.27
2023-04-30T10:42:12.043Z,99127.55
2023-04-30T10:44:39.881Z,99130.70
2023-04-30T10:47:07.894Z,99134.16
2023-04-30T10:49:35.509Z,99137.06
2023-04-30T10:52:04.337Z,99136.13
2023-04-30T10:54:33.624Z,99141.40
2023-04-30T10:57:12.790Z,99145.27
2023-04-30T11:00:14.651Z,99144.80
2023-04-30T11:02:45.814Z,99145.83
2023-04-30T11:05:14.839Z,99145.69
2023-04-30T11:07:51.541Z,99150.36
2023-04-30T11:10:23.579Z,99153.80
2023-04-30T11:12:51.828Z,99164.89
2023-04-30T11:15:21.043Z,99167.17
2023-04-30T11:17:49.202Z,99174.51
2023-04-30T11:20:21.757Z,99178.03
2023-04-30T11:22:49.176Z,99174.45
2023-04-30T11:25:19.962Z,99172.09
2023-04-30T11:27:47.278Z,99172.20
2023-04-30T11:30:16.526Z,99172.75
2023-04-30T11:32:47.604Z,99172.02
2023-04-30T11:35:19.974Z,99171.93
2023-04-30T11:37:47.409Z,99169.48
2023-04-30T11:40:14.792Z,99158.67
2023-04-30T11:42:46.042Z,99158.55
2023-04-30T11:45:18.081Z,99154.33
2023-04-30T11:47:47.198Z,99150.54
2023-04-30T11:50:19.626Z,99146.10
2023-04-30T11:52:50.901Z,99139.03
2023-04-30T11:55:22.997Z,99132.02
2023-04-30T11:57:53.551Z,99132.85
2023-04-30T12:00:22.303Z,99129.25
2023-04-30T12:02:50.242Z,99121.32
2023-04-30T12:05:20.275Z,99112.88
2023-04-30T12:07:49.130Z,99106.36
2023-04-30T12:10:16.819Z,99102.13
2023-04-30T12:12:44.995Z,99096.16
2023-04-30T12:15:30.625Z,99099.30
2023-04-30T12:17:59.021Z,99101.88
2023-04-30T12:20:28.515Z,99092.94
2023-04-30T12:22:56.235Z,99093.64
2023-04-30T12:25:23.849Z,99088.97
2023-04-30T12:27:54.343Z,99081.32
2023-04-30T12:30:27.115Z,99076.93
2023-04-30T12:32:57.661Z,99071.09
2023-04-30T12:35:28.260Z,99059.46
2023-04-30T12:38:07.384Z,99053.13
2023-04-30T12:40:34.811Z,99054.88
2023-04-30T12:43:03.161Z,99056.61
2023-04-30T12:45:54.567Z,99060.16
2023-04-30T12:48:25.576Z,99069.29
2023-04-30T12:50:54.295Z,99066.77
2023-04-30T12:53:22.169Z,99067.31
2023-04-30T12:56:15.594Z,99064.27
2023-04-30T12:58:50.045Z,99075.05
2023-04-30T13:01:24.784Z,99074.50
2023-04-30T13:03:52.835Z,99078.45
2023-04-30T13:06:24.488Z,99084.59
2023-04-30T13:11:26.989Z,99099.50
2023-04-30T13:13:56.138Z,99105.20
2023-04-30T13:16:25.112Z,99113.27
2023-04-30T13:18:54.393Z,99123.06
2023-04-30T13:21:21.785Z,99128.94
2023-04-30T13:23:53.337Z,99138.23
2023-04-30T13:26:23.721Z,99155.02
2023-04-30T13:28:51.764Z,99176.85
2023-04-30T13:31:19.721Z,99192.95
2023-04-30T13:33:47.120Z,99208.15
2023-04-30T13:36:14.707Z,99223.77
2023-04-30T13:38:43.433Z,99243.13
2023-04-30T13:41:11.212Z,99254.92
2023-04-30T13:43:42.047Z,99270.38
2023-04-30T13:46:10.055Z,99281.71
2023-04-30T13:48:37.512Z,99291.77
2023-04-30T13:51:04.789Z,99295.06
2023-04-30T13:53:32.585Z,99301.24
2023-04-30T13:55:59.958Z,99309.58
2023-04-30T13:58:27.587Z,99316.75
2023-04-30T14:00:55.120Z,99321.17
2023-04-30T14:03:22.666Z,99329.40
2023-04-30T14:05:50.234Z,99340.38
2023-04-30T14:08:17.753Z,99339.48
2023-04-30T14:10:45.229Z,99344.85
2023-04-30T14:13:12.773Z,99347.68
2023-04-30T14:15:40.469Z,99350.80
2023-04-30T14:18:24.618Z,99356.98
2023-04-30T14:20:52.221Z,99363.52
2023-04-30T14:23:19.409Z,99358.90
2023-04-30T14:25:46.679Z,99357.77
2023-04-30T14:28:14.061Z,99356.27
2023-04-30T14:30:41.607Z,99348.52
2023-04-30T14:33:11.354Z,99343.18
2023-04-30T14:35:39.033Z,99337.52
2023-04-30T14:38:06.696Z,99339.27
2023-04-30T14:40:34.325Z,99339.06
2023-04-30T14:43:02.054Z,99336.67
2023-04-30T14:45:29.687Z,99330.61
2023-04-30T14:47:57.113Z,99317.40
2023-04-30T14:50:24.731Z,99311.89
2023-04-30T14:52:52.018Z,99308.08
2023-04-30T14:55:19.588Z,99299.58
2023-04-30T14:57:47.171Z,99291.25
2023-04-30T15:00:16.457Z,99285.83
2023-04-30T15:02:43.888Z,99278.55
2023-04-30T15:05:11.706Z,99271.35
2023-04-30T15:07:39.918Z,99263.86
2023-04-30T15:10:08.482Z,99257.02
2023-04-30T15:12:36.201Z,99251.42
2023-04-30T15:15:07.109Z,99247.83
2023-04-30T15:17:36.983Z,99243.01
2023-04-30T15:20:08.488Z,99237.39
2023-04-30T15:22:36.074Z,99228.25
2023-04-30T15:25:04.725Z,99222.84
2023-04-30T15:27:33.910Z,99221.39
2023-04-30T15:30:02.079Z,99216.16
2023-04-30T15:32:29.984Z,99215.95
2023-04-30T15:34:57.433Z,99209.25
2023-04-30T15:37:25.011Z,99200.14
2023-04-30T15:39:52.330Z,99194.57
2023-04-30T15:42:19.806Z,99192.20
2023-04-30T15:44:47.222Z,99187.82
2023-04-30T15:47:14.632Z,99181.63
2023-04-30T15:49:42.640Z,99176.30
2023-04-30T15:52:10.765Z,99170.20
2023-04-30T15:54:38.125Z,99166.39
2023-04-30T15:57:07.677Z,99166.34
2023-04-30T15:59:34.509Z,99166.95
2023-04-30T16:02:01.871Z,99164.75
2023-04-30T16:04:29.767Z,99157.52
2023-04-30T16:06:57.657Z,99159.47
2023-04-30T16:09:26.160Z,99151.04
2023-04-30T16:11:53.918Z,99149.00
2023-04-30T16:14:21.073Z,99141.08
2023-04-30T16:16:49.357Z,99134.50
2023-04-30T16:19:17.887Z,99128.80
2023-04-30T16:21:45.193Z,99126.98
2023-04-30T16:24:13.032Z,99118.42
2023-04-30T16:26:40.548Z,99106.36
2023-04-30T16:29:08.702Z,99097.11
2023-04-30T16:31:36.286Z,99096.55
2023-04-30T16:34:03.784Z,99093.00
2023-04-30T16:36:31.418Z,99090.29
2023-04-30T16:38:58.839Z,99082.55
2023-04-30T16:41:26.829Z,99075.31
2023-04-30T16:43:54.177Z,99071.67
2023-04-30T16:46:21.668Z,99065.10
2023-04-30T16:48:49.835Z,99059.27
2023-04-30T16:51:17.414Z,99048.21
2023-04-30T16:53:44.960Z,99040.16
2023-04-30T16:56:12.523Z,99036.13
2023-04-30T16:58:40.138Z,99024.08
2023-04-30T17:01:07.687Z,99017.05
2023-04-30T17:03:35.501Z,99009.94
2023-04-30T17:06:04.189Z,99001.06
2023-04-30T17:08:31.685Z,98995.08
2023-04-30T17:10:58.934Z,98988.95
2023-04-30T17:13:26.488Z,98978.17
2023-04-30T17:16:01.752Z,98968.54
2023-04-30T17:18:29.709Z,98960.78
2023-04-30T17:20:57.246Z,98953.00
2023-04-30T17:23:25.768Z,98945.55
2023-04-30T17:25:53.511Z,98943.79
2023-04-30T17:28:20.829Z,98935.80
2023-04-30T17:30:48.420Z,98931.89
2023-04-30T17:33:15.910Z,98932.75
2023-04-30T17:35:43.729Z,98925.61
2023-04-30T17:38:11.690Z,98926.86
2023-04-30T17:40:39.501Z,98920.10
2023-04-30T17:43:07.516Z,98912.59
2023-04-30T17:45:35.079Z,98903.76
2023-04-30T17:48:02.409Z,98896.35
2023-04-30T17:50:29.860Z,98888.62
2023-04-30T17:52:58.015Z,98876.96
2023-04-30T17:55:26.061Z,98864.66
2023-04-30T17:57:53.367Z,98854.70
2023-04-30T18:00:20.720Z,98848.20
2023-04-30T18:02:48.571Z,98833.65
2023-04-30T18:05:16.868Z,98824.15
2023-04-30T18:07:44.360Z,98816.08
2023-04-30T18:10:11.728Z,98807.03
2023-04-30T18:12:39.134Z,98797.04
2023-04-30T18:15:08.708Z,98787.27
2023-04-30T18:17:37.525Z,98779.04
2023-04-30T18:20:06.160Z,98770.38
2023-04-30T18:22:33.590Z,98760.58
2023-04-30T18:25:00.960Z,98749.15
2023-04-30T18:27:29.416Z,98742.30
2023-04-30T18:29:57.249Z,98734.55
2023-04-30T18:32:24.858Z,98732.73
2023-04-30T18:34:52.598Z,98728.80
2023-04-30T18:37:21.104Z,98721.94
2023-04-30T18:39:48.563Z,98711.82
2023-04-30T18:42:16.240Z,98707.06
2023-04-30T18:44:43.674Z,98697.41
2023-04-30T18:47:11.672Z,98698.27
2023-04-30T18:49:39.309Z,98689.16
2023-04-30T18:52:06.764Z,98684.16
2023-04-30T18:54:34.779Z,98673.20
2023-04-30T18:57:02.622Z,98664.14
2023-04-30T18:59:30.180Z,98657.77
2023-04-30T19:01:58.156Z,98650.63
2023-04-30T19:04:25.606Z,98638.85
2023-04-30T19:06:55.186Z,98627.20
2023-04-30T19:09:22.746Z,98616.17
2023-04-30T19:11:50.486Z,98608.89
2023-04-30T19:14:18.166Z,98599.81
2023-04-30T19:16:46.369Z,98593.52
2023-04-30T19:19:14.064Z,98580.16
2023-04-30T19:21:41.557Z,98568.96
2023-04-30T19:24:08.884Z,98565.27
2023-04-30T19:26:37.717Z,98555.16
2023-04-30T19:29:05.014Z,98553.17
2023-04-30T19:31:42.579Z,98545.59
2023-04-30T19:34:10.155Z,98543.08
2023-04-30T19:36:37.547Z,98534.32
2023-04-30T19:39:08.993Z,98528.41
2023-04-30T19:41:36.239Z,98522.84
2023-04-30T19:44:03.666Z,98527.39
2023-04-30T19:46:31.692Z,98526.78
2023-04-30T19:48:59.340Z,98518.05
2023-04-30T19:51:26.902Z,98519.64
2023-04-30T19:53:55.258Z,98518.27
2023-04-30T19:56:22.668Z,98520.79
2023-04-30T19:58:50.016Z,98522.17
2023-04-30T20:01:18.665Z,98520.00
2023-04-30T20:03:46.310Z,98527.66
2023-04-30T20:06:14.007Z,98532.70
2023-04-30T20:08:42.025Z,98532.98
2023-04-30T20:11:09.424Z,98529.69
2023-04-30T20:13:36.880Z,98529.77
2023-04-30T20:16:04.394Z,98523.83
2023-04-30T20:18:32.510Z,98521.38
2023-04-30T20:20:59.840Z,98523.34
2023-04-30T20:23:27.825Z,98525.75
2023-04-30T20:25:55.337Z,98532.09
2023-04-30T20:28:22.837Z,98533.48
2023-04-30T20:30:50.097Z,98540.64
2023-04-30T20:33:18.991Z,98543.20
2023-04-30T20:35:47.584Z,98553.46
2023-04-30T20:38:19.536Z,98558.15
2023-04-30T20:40:47.437Z,98563.30
2023-04-30T20:43:14.862Z,98565.98
2023-04-30T20:45:44.692Z,98570.23
2023-04-30T20:48:11.652Z,98580.69
2023-04-30T20:50:39.196Z,98585.85
2023-04-30T20:53:07.481Z,98599.47
2023-04-30T20:55:36.465Z,98603.40
2023-04-30T20:58:04.090Z,98613.62
2023-04-30T21:00:31.504Z,98622.77
2023-04-30T21:02:59.025Z,98635.30
2023-04-30T21:05:28.740Z,98644.17
2023-04-30T21:08:01.250Z,98651.54
2023-04-30T21:10:36.406Z,98663.85
2023-04-30T21:13:05.526Z,98680.97
2023-04-30T21:15:35.429Z,98690.29
2023-04-30T21:18:03.082Z,98698.95
2023-04-30T21:20:31.965Z,98713.16
2023-04-30T21:22:59.524Z,98727.88
2023-04-30T21:25:26.980Z,98740.38
2023-04-30T21:27:55.486Z,98750.71
2023-04-30T21:30:25.663Z,98768.73
2023-04-30T21:32:58.952Z,98782.48
2023-04-30T21:35:27.942Z,98799.34
2023-04-30T21:37:55.920Z,98812.17
2023-04-30T21:40:23.159Z,98820.48
2023-04-30T21:42:50.566Z,98829.29
2023-04-30T21:45:18.317Z,98841.75
2023-04-30T21:47:47.755Z,98851.90
2023-04-30T21:50:15.283Z,98861.73
2023-04-30T21:52:42.776Z,98867.59
2023-04-30T21:55:10.266Z,98876.05
2023-04-30T21:57:37.909Z,98879.42
2023-04-30T22:00:06.687Z,98885.16
2023-04-30T22:02:35.134Z,98894.42
2023-04-30T22:05:03.170Z,98906.38
2023-04-30T22:07:30.838Z,98914.80
2023-04-30T22:09:58.601Z,98919.27
2023-04-30T22:12:26.398Z,98923.17
2023-04-30T22:14:54.527Z,98933.56
2023-04-30T22:17:22.309Z,98938.99
2023-04-30T22:19:49.691Z,98945.46
2023-04-30T22:22:17.081Z,98952.52
2023-04-30T22:24:44.505Z,98956.84
2023-04-30T22:27:11.953Z,98966.44
2023-04-30T22:29:39.531Z,98978.11
2023-04-30T22:32:07.595Z,98985.42
2023-04-30T22:34:40.263Z,98991.33
2023-04-30T22:37:08.179Z,98997.34
2023-04-30T22:39:34.993Z,99003.62
2023-04-30T22:42:02.322Z,99011.20
2023-04-30T22:44:29.173Z,99015.79
2023-04-30T22:46:59.513Z,99022.17
2023-04-30T22:49:31.325Z,99027.96
2023-04-30T22:51:59.893Z,99035.02
2023-04-30T22:54:26.903Z,99045.02
2023-04-30T22:56:54.190Z,99053.06
2023-04-30T22:59:21.558Z,99062.45
2023-04-30T23:01:49.465Z,99067.33
2023-04-30T23:04:16.726Z,99066.30
2023-04-30T23:06:44.201Z,99071.40
2023-04-30T23:09:12.946Z,99076.52
2023-04-30T23:11:40.754Z,99075.11
2023-04-30T23:14:08.415Z,99079.27
2023-04-30T23:16:35.901Z,99087.08
2023-04-30T23:19:03.140Z,99087.80
2023-04-30T23:21:31.531Z,99096.69
2023-04-30T23:23:58.952Z,99099.20
2023-04-30T23:26:26.310Z,99102.05
2023-04-30T23:28:55.365Z,99108.98
2023-04-30T23:31:22.753Z,99112.02
2023-04-30T23:33:50.224Z,99121.93
2023-04-30T23:36:17.738Z,99127.40
2023-04-30T23:38:48.150Z,99136.34
2023-04-30T23:41:15.115Z,99134.48
2023-04-30T23:43:42.220Z,99136.50
2023-04-30T23:46:09.664Z,99142.63
2023-04-30T23:48:37.425Z,99149.77
2023-04-30T23:51:05.297Z,99154.69
2023-04-30T23:53:32.692Z,99166.45
2023-04-30T23:56:00.211Z,99164.52
2023-04-30T23:58:27.873Z,99171.99
